Pont-y-pwl, United Kingdom
Current Conditions -  °F | °C
As of 12:20 AM on Saturday 25 Oct 2014 (Local Time) from EGFF Reporting Station
Overcast Overcast  
Wind Chill: 12°   Ceiling: 3700
Heat Index: 12°   Visibility: 6mi
Dew Point:   Wind: 9mph
Humidity: 77%   Direction: 280°W
Pressure: 30"   Gusts: NA
Location:  51.7°N, 3.04°W
Report Text: EGFF 242320Z AUTO 28008KT 9999 OVC037 12/08 Q1016
Loading
Personal Weather Stations






























Interactive Weather Map
Tropical Storm Tracking
New forecast layout! Learn more

10-Day Weather Forecast

Advertisements
Track Severe Weather on mobile